YXCB weather

Canberra Hospital Helipad
Canberra, Australian Capital Territory, Australia

Public forecast

Using degrees Celsius for public forecast. Weather courtesy of forecast.io.

Closest aviation weather report (METAR) to Canberra Hospital Helipad

Closest report is Canberra International Airport, 5.2 nm (9.5 km) ENE. Retrieved 2019/12/13 15:30 UTC (28 minutes ago):

YSCB 131530Z AUTO 07004KT 9999 // NCD 11/10 Q1013 RF000/0000

Closest aviation forecast (TAF) to Canberra Hospital Helipad

Forecast is more than 12 hours old.

Closest forecast is Canberra International Airport, 5.2 nm (9.5 km) ENE. Retrieved 2019/12/12 06:00 UTC (1 day ago):

TAF YSCB 120535Z 1206/1306 35010KT 9999 -FU NSC BECMG 1207/1208 06014KT 8000 -FU NSC FM121000 10012KT 6000 -FU SCT020 FM121200 07008KT 6000 -FU SCT010 BKN025 BECMG 1222/1223 06007KT 8000 -FU SCT030 FM130200 35010KT CAVOK PROB30 1206/1207 6000 +FU PROB30 1207/1300 2000 +FU BKN010